sensor_id;sensor_type;location;lat;lon;timestamp;temperature;humidity
12907;DHT22;6521;50.498;8.474;2023-03-23T00:02:13;12.49;60.34
12907;DHT22;6521;50.498;8.474;2023-03-23T00:05:05;12.55;60.66
12907;DHT22;6521;50.498;8.474;2023-03-23T00:07:57;12.46;60.74
12907;DHT22;6521;50.498;8.474;2023-03-23T00:10:50;12.45;60.94
12907;DHT22;6521;50.498;8.474;2023-03-23T00:13:49;12.46;61.01
12907;DHT22;6521;50.498;8.474;2023-03-23T00:16:43;12.45;61.13
12907;DHT22;6521;50.498;8.474;2023-03-23T00:19:37;12.35;61.43
12907;DHT22;6521;50.498;8.474;2023-03-23T00:22:36;12.45;60.68
12907;DHT22;6521;50.498;8.474;2023-03-23T00:25:28;12.48;60.96
12907;DHT22;6521;50.498;8.474;2023-03-23T00:28:20;12.49;62.27
12907;DHT22;6521;50.498;8.474;2023-03-23T00:31:15;12.45;62.50
12907;DHT22;6521;50.498;8.474;2023-03-23T00:34:08;12.34;63.74
12907;DHT22;6521;50.498;8.474;2023-03-23T00:37:02;12.23;64.87
12907;DHT22;6521;50.498;8.474;2023-03-23T00:39:53;12.20;64.90
12907;DHT22;6521;50.498;8.474;2023-03-23T00:42:47;12.12;66.25
12907;DHT22;6521;50.498;8.474;2023-03-23T00:45:39;11.97;68.13
12907;DHT22;6521;50.498;8.474;2023-03-23T00:48:29;11.80;69.75
12907;DHT22;6521;50.498;8.474;2023-03-23T00:51:23;11.65;70.86
12907;DHT22;6521;50.498;8.474;2023-03-23T00:54:15;11.49;71.99
12907;DHT22;6521;50.498;8.474;2023-03-23T00:57:05;11.36;72.97
12907;DHT22;6521;50.498;8.474;2023-03-23T00:59:57;11.29;73.55
12907;DHT22;6521;50.498;8.474;2023-03-23T01:02:48;11.19;73.64
12907;DHT22;6521;50.498;8.474;2023-03-23T01:05:46;11.12;75.35
12907;DHT22;6521;50.498;8.474;2023-03-23T01:08:42;11.04;76.08
12907;DHT22;6521;50.498;8.474;2023-03-23T01:11:35;11.03;76.55
12907;DHT22;6521;50.498;8.474;2023-03-23T01:14:28;10.91;77.30
12907;DHT22;6521;50.498;8.474;2023-03-23T01:17:19;10.81;77.99
12907;DHT22;6521;50.498;8.474;2023-03-23T01:20:13;10.78;78.44
12907;DHT22;6521;50.498;8.474;2023-03-23T01:23:05;10.71;78.87
12907;DHT22;6521;50.498;8.474;2023-03-23T01:25:57;10.67;79.28
12907;DHT22;6521;50.498;8.474;2023-03-23T01:28:49;10.64;79.76
12907;DHT22;6521;50.498;8.474;2023-03-23T01:31:40;10.59;79.89
12907;DHT22;6521;50.498;8.474;2023-03-23T01:34:32;10.55;80.12
12907;DHT22;6521;50.498;8.474;2023-03-23T01:37:23;10.52;80.50
12907;DHT22;6521;50.498;8.474;2023-03-23T01:40:19;10.50;80.51
12907;DHT22;6521;50.498;8.474;2023-03-23T01:43:14;10.45;80.74
12907;DHT22;6521;50.498;8.474;2023-03-23T01:46:07;10.40;81.21
12907;DHT22;6521;50.498;8.474;2023-03-23T01:49:02;10.40;81.50
12907;DHT22;6521;50.498;8.474;2023-03-23T01:52:02;10.38;81.66
12907;DHT22;6521;50.498;8.474;2023-03-23T01:54:56;10.38;81.74
12907;DHT22;6521;50.498;8.474;2023-03-23T01:57:48;10.30;81.59
12907;DHT22;6521;50.498;8.474;2023-03-23T02:00:40;10.32;81.81
12907;DHT22;6521;50.498;8.474;2023-03-23T02:03:35;10.40;81.07
12907;DHT22;6521;50.498;8.474;2023-03-23T02:06:27;10.38;81.01
12907;DHT22;6521;50.498;8.474;2023-03-23T02:09:40;10.42;80.72
12907;DHT22;6521;50.498;8.474;2023-03-23T02:12:32;10.40;80.72
12907;DHT22;6521;50.498;8.474;2023-03-23T02:15:26;10.42;80.05
12907;DHT22;6521;50.498;8.474;2023-03-23T02:21:20;10.50;80.02
12907;DHT22;6521;50.498;8.474;2023-03-23T02:27:25;10.60;78.42
12907;DHT22;6521;50.498;8.474;2023-03-23T02:36:41;10.83;75.46
12907;DHT22;6521;50.498;8.474;2023-03-23T02:39:45;10.93;75.05
12907;DHT22;6521;50.498;8.474;2023-03-23T02:42:42;11.08;73.04
12907;DHT22;6521;50.498;8.474;2023-03-23T02:45:36;11.18;72.99
12907;DHT22;6521;50.498;8.474;2023-03-23T02:48:29;11.18;73.52
12907;DHT22;6521;50.498;8.474;2023-03-23T02:51:22;11.26;72.26
12907;DHT22;6521;50.498;8.474;2023-03-23T02:54:15;11.19;73.22
12907;DHT22;6521;50.498;8.474;2023-03-23T02:57:08;11.18;74.03
12907;DHT22;6521;50.498;8.474;2023-03-23T03:00:05;11.11;74.53
12907;DHT22;6521;50.498;8.474;2023-03-23T03:03:00;11.01;76.01
12907;DHT22;6521;50.498;8.474;2023-03-23T03:06:14;10.84;77.40
12907;DHT22;6521;50.498;8.474;2023-03-23T03:12:14;10.59;78.96
12907;DHT22;6521;50.498;8.474;2023-03-23T03:18:13;10.38;80.32
12907;DHT22;6521;50.498;8.474;2023-03-23T03:21:09;10.38;80.27
12907;DHT22;6521;50.498;8.474;2023-03-23T03:24:05;10.35;80.54
12907;DHT22;6521;50.498;8.474;2023-03-23T03:27:02;10.29;80.58
12907;DHT22;6521;50.498;8.474;2023-03-23T03:30:04;10.28;81.15
12907;DHT22;6521;50.498;8.474;2023-03-23T03:32:57;10.25;81.24
12907;DHT22;6521;50.498;8.474;2023-03-23T03:35:53;10.25;81.45
12907;DHT22;6521;50.498;8.474;2023-03-23T03:38:48;10.26;81.66
12907;DHT22;6521;50.498;8.474;2023-03-23T03:41:39;10.25;82.10
12907;DHT22;6521;50.498;8.474;2023-03-23T03:44:30;10.28;81.93
12907;DHT22;6521;50.498;8.474;2023-03-23T03:47:23;10.20;82.15
12907;DHT22;6521;50.498;8.474;2023-03-23T03:50:14;10.25;82.22
12907;DHT22;6521;50.498;8.474;2023-03-23T03:53:05;10.28;82.14
12907;DHT22;6521;50.498;8.474;2023-03-23T03:55:56;10.23;82.64
12907;DHT22;6521;50.498;8.474;2023-03-23T03:58:51;10.26;82.27
12907;DHT22;6521;50.498;8.474;2023-03-23T04:02:11;10.25;82.52
12907;DHT22;6521;50.498;8.474;2023-03-23T04:05:05;10.25;82.57
12907;DHT22;6521;50.498;8.474;2023-03-23T04:07:57;10.19;83.04
12907;DHT22;6521;50.498;8.474;2023-03-23T04:10:55;10.18;83.12
12907;DHT22;6521;50.498;8.474;2023-03-23T04:13:46;10.12;83.77
12907;DHT22;6521;50.498;8.474;2023-03-23T04:16:44;10.12;83.78
12907;DHT22;6521;50.498;8.474;2023-03-23T04:19:36;10.13;83.89
12907;DHT22;6521;50.498;8.474;2023-03-23T04:22:27;10.13;83.95
12907;DHT22;6521;50.498;8.474;2023-03-23T04:25:23;10.13;83.97
12907;DHT22;6521;50.498;8.474;2023-03-23T04:28:16;10.10;84.05
12907;DHT22;6521;50.498;8.474;2023-03-23T04:31:25;10.15;84.05
12907;DHT22;6521;50.498;8.474;2023-03-23T04:34:21;10.10;84.29
12907;DHT22;6521;50.498;8.474;2023-03-23T04:37:15;10.05;84.34
12907;DHT22;6521;50.498;8.474;2023-03-23T04:40:08;10.03;84.62
12907;DHT22;6521;50.498;8.474;2023-03-23T04:43:10;10.08;84.35
12907;DHT22;6521;50.498;8.474;2023-03-23T04:46:26;10.16;84.14
12907;DHT22;6521;50.498;8.474;2023-03-23T04:49:20;10.20;84.07
12907;DHT22;6521;50.498;8.474;2023-03-23T04:52:11;10.23;84.11
12907;DHT22;6521;50.498;8.474;2023-03-23T04:55:19;10.35;84.05
12907;DHT22;6521;50.498;8.474;2023-03-23T04:58:18;10.32;84.33
12907;DHT22;6521;50.498;8.474;2023-03-23T05:01:29;10.32;84.43
12907;DHT22;6521;50.498;8.474;2023-03-23T05:04:36;10.33;84.44
12907;DHT22;6521;50.498;8.474;2023-03-23T05:07:38;10.32;84.69
12907;DHT22;6521;50.498;8.474;2023-03-23T05:10:29;10.30;84.84
12907;DHT22;6521;50.498;8.474;2023-03-23T05:13:28;10.32;84.80
12907;DHT22;6521;50.498;8.474;2023-03-23T05:16:21;10.33;84.74
12907;DHT22;6521;50.498;8.474;2023-03-23T05:19:13;10.33;84.81
12907;DHT22;6521;50.498;8.474;2023-03-23T05:22:04;10.43;84.42
12907;DHT22;6521;50.498;8.474;2023-03-23T05:25:07;10.45;84.30
12907;DHT22;6521;50.498;8.474;2023-03-23T05:28:01;10.49;83.94
12907;DHT22;6521;50.498;8.474;2023-03-23T05:31:19;10.60;83.43
12907;DHT22;6521;50.498;8.474;2023-03-23T05:34:09;10.63;83.25
12907;DHT22;6521;50.498;8.474;2023-03-23T05:37:10;10.70;83.21
12907;DHT22;6521;50.498;8.474;2023-03-23T05:40:14;10.64;83.50
12907;DHT22;6521;50.498;8.474;2023-03-23T05:43:10;10.67;83.23
12907;DHT22;6521;50.498;8.474;2023-03-23T05:46:25;10.76;82.68
12907;DHT22;6521;50.498;8.474;2023-03-23T05:49:20;10.73;82.78
12907;DHT22;6521;50.498;8.474;2023-03-23T05:52:12;10.83;82.23
12907;DHT22;6521;50.498;8.474;2023-03-23T05:55:03;10.80;82.29
12907;DHT22;6521;50.498;8.474;2023-03-23T05:57:58;10.84;81.71
12907;DHT22;6521;50.498;8.474;2023-03-23T06:00:58;10.91;81.22
12907;DHT22;6521;50.498;8.474;2023-03-23T06:03:52;10.94;81.07
12907;DHT22;6521;50.498;8.474;2023-03-23T06:06:48;11.01;80.81
12907;DHT22;6521;50.498;8.474;2023-03-23T06:09:40;11.00;81.02
12907;DHT22;6521;50.498;8.474;2023-03-23T06:12:55;11.00;80.88
12907;DHT22;6521;50.498;8.474;2023-03-23T06:15:58;10.98;80.91
12907;DHT22;6521;50.498;8.474;2023-03-23T06:19:10;11.03;81.14
12907;DHT22;6521;50.498;8.474;2023-03-23T06:22:07;11.00;81.16
12907;DHT22;6521;50.498;8.474;2023-03-23T06:25:18;11.01;81.30
12907;DHT22;6521;50.498;8.474;2023-03-23T06:28:10;11.10;80.72
12907;DHT22;6521;50.498;8.474;2023-03-23T06:31:06;11.18;80.48
12907;DHT22;6521;50.498;8.474;2023-03-23T06:33:59;11.17;80.45
12907;DHT22;6521;50.498;8.474;2023-03-23T06:36:50;11.17;80.65
12907;DHT22;6521;50.498;8.474;2023-03-23T06:39:45;11.18;80.73
12907;DHT22;6521;50.498;8.474;2023-03-23T06:42:46;11.15;81.02
12907;DHT22;6521;50.498;8.474;2023-03-23T06:45:59;11.15;81.25
12907;DHT22;6521;50.498;8.474;2023-03-23T06:49:07;11.12;81.26
12907;DHT22;6521;50.498;8.474;2023-03-23T06:52:10;11.11;81.62
12907;DHT22;6521;50.498;8.474;2023-03-23T06:55:01;11.12;81.48
12907;DHT22;6521;50.498;8.474;2023-03-23T06:57:52;11.11;81.63
12907;DHT22;6521;50.498;8.474;2023-03-23T07:00:43;11.08;81.41
12907;DHT22;6521;50.498;8.474;2023-03-23T07:03:37;11.12;81.40
12907;DHT22;6521;50.498;8.474;2023-03-23T07:06:29;11.22;80.94
12907;DHT22;6521;50.498;8.474;2023-03-23T07:09:24;11.22;80.95
12907;DHT22;6521;50.498;8.474;2023-03-23T07:12:15;11.24;79.98
12907;DHT22;6521;50.498;8.474;2023-03-23T07:15:11;11.26;79.71
12907;DHT22;6521;50.498;8.474;2023-03-23T07:18:04;11.28;79.09
12907;DHT22;6521;50.498;8.474;2023-03-23T07:21:03;11.32;79.20
12907;DHT22;6521;50.498;8.474;2023-03-23T07:23:56;11.39;78.65
12907;DHT22;6521;50.498;8.474;2023-03-23T07:27:07;11.39;78.46
12907;DHT22;6521;50.498;8.474;2023-03-23T07:29:58;11.42;78.02
12907;DHT22;6521;50.498;8.474;2023-03-23T07:32:50;11.46;77.23
12907;DHT22;6521;50.498;8.474;2023-03-23T07:35:43;11.49;77.73
12907;DHT22;6521;50.498;8.474;2023-03-23T07:38:37;11.47;77.80
12907;DHT22;6521;50.498;8.474;2023-03-23T07:41:29;11.58;76.80
12907;DHT22;6521;50.498;8.474;2023-03-23T07:44:23;11.63;75.91
12907;DHT22;6521;50.498;8.474;2023-03-23T07:47:16;11.69;76.01
12907;DHT22;6521;50.498;8.474;2023-03-23T07:50:09;11.69;75.95
12907;DHT22;6521;50.498;8.474;2023-03-23T07:53:04;11.66;76.27
12907;DHT22;6521;50.498;8.474;2023-03-23T07:55:56;11.72;75.79
12907;DHT22;6521;50.498;8.474;2023-03-23T07:59:07;11.72;76.05
12907;DHT22;6521;50.498;8.474;2023-03-23T08:02:02;11.75;76.11
12907;DHT22;6521;50.498;8.474;2023-03-23T08:05:01;11.82;75.25
12907;DHT22;6521;50.498;8.474;2023-03-23T08:08:08;11.85;75.25
12907;DHT22;6521;50.498;8.474;2023-03-23T08:11:20;11.80;74.73
12907;DHT22;6521;50.498;8.474;2023-03-23T08:14:31;11.86;74.85
12907;DHT22;6521;50.498;8.474;2023-03-23T08:17:36;11.85;75.22
12907;DHT22;6521;50.498;8.474;2023-03-23T08:20:47;11.82;75.61
12907;DHT22;6521;50.498;8.474;2023-03-23T08:23:52;11.83;75.24
12907;DHT22;6521;50.498;8.474;2023-03-23T08:26:43;11.89;74.76
12907;DHT22;6521;50.498;8.474;2023-03-23T08:29:48;11.89;74.94
12907;DHT22;6521;50.498;8.474;2023-03-23T08:33:04;11.93;74.68
12907;DHT22;6521;50.498;8.474;2023-03-23T08:36:14;11.93;74.72
12907;DHT22;6521;50.498;8.474;2023-03-23T08:39:21;11.93;75.01
12907;DHT22;6521;50.498;8.474;2023-03-23T08:42:40;12.00;74.51
12907;DHT22;6521;50.498;8.474;2023-03-23T08:45:57;11.97;74.91
12907;DHT22;6521;50.498;8.474;2023-03-23T08:49:07;12.06;74.95
12907;DHT22;6521;50.498;8.474;2023-03-23T08:52:31;12.06;74.59
12907;DHT22;6521;50.498;8.474;2023-03-23T08:55:39;12.12;74.54
12907;DHT22;6521;50.498;8.474;2023-03-23T08:58:48;12.23;74.05
12907;DHT22;6521;50.498;8.474;2023-03-23T09:01:59;12.30;73.48
12907;DHT22;6521;50.498;8.474;2023-03-23T09:05:00;12.38;73.74
12907;DHT22;6521;50.498;8.474;2023-03-23T09:08:25;12.41;72.32
12907;DHT22;6521;50.498;8.474;2023-03-23T09:11:17;12.41;71.80
12907;DHT22;6521;50.498;8.474;2023-03-23T09:14:08;12.46;71.84
12907;DHT22;6521;50.498;8.474;2023-03-23T09:16:59;12.49;72.60
12907;DHT22;6521;50.498;8.474;2023-03-23T09:19:49;12.55;71.94
12907;DHT22;6521;50.498;8.474;2023-03-23T09:22:43;12.64;71.86
12907;DHT22;6521;50.498;8.474;2023-03-23T09:25:35;12.73;72.04
12907;DHT22;6521;50.498;8.474;2023-03-23T09:28:28;12.72;71.44
12907;DHT22;6521;50.498;8.474;2023-03-23T09:31:19;12.76;71.62
12907;DHT22;6521;50.498;8.474;2023-03-23T09:34:14;12.73;72.41
12907;DHT22;6521;50.498;8.474;2023-03-23T09:37:05;12.73;71.37
12907;DHT22;6521;50.498;8.474;2023-03-23T09:39:56;12.81;70.91
12907;DHT22;6521;50.498;8.474;2023-03-23T09:43:10;12.78;70.63
12907;DHT22;6521;50.498;8.474;2023-03-23T09:46:27;12.72;70.14
12907;DHT22;6521;50.498;8.474;2023-03-23T09:49:25;12.68;70.73
12907;DHT22;6521;50.498;8.474;2023-03-23T09:52:18;12.64;71.26
12907;DHT22;6521;50.498;8.474;2023-03-23T09:55:13;12.56;70.52
12907;DHT22;6521;50.498;8.474;2023-03-23T09:58:24;12.48;71.95
12907;DHT22;6521;50.498;8.474;2023-03-23T10:01:24;12.40;71.31
12907;DHT22;6521;50.498;8.474;2023-03-23T10:04:37;12.30;73.43
12907;DHT22;6521;50.498;8.474;2023-03-23T10:07:29;12.30;73.12
12907;DHT22;6521;50.498;8.474;2023-03-23T10:10:23;12.25;73.87
12907;DHT22;6521;50.498;8.474;2023-03-23T10:16:32;12.20;72.98
12907;DHT22;6521;50.498;8.474;2023-03-23T10:22:24;12.20;73.30
12907;DHT22;6521;50.498;8.474;2023-03-23T10:25:22;12.16;73.16
12907;DHT22;6521;50.498;8.474;2023-03-23T10:28:23;12.14;73.50
12907;DHT22;6521;50.498;8.474;2023-03-23T10:31:20;12.14;74.12
12907;DHT22;6521;50.498;8.474;2023-03-23T10:34:32;12.18;73.52
12907;DHT22;6521;50.498;8.474;2023-03-23T10:37:27;12.12;74.80
12907;DHT22;6521;50.498;8.474;2023-03-23T10:40:23;12.16;74.49
12907;DHT22;6521;50.498;8.474;2023-03-23T10:43:15;12.12;74.34
12907;DHT22;6521;50.498;8.474;2023-03-23T10:49:20;12.13;74.25
12907;DHT22;6521;50.498;8.474;2023-03-23T10:52:27;12.08;75.00
12907;DHT22;6521;50.498;8.474;2023-03-23T10:55:21;12.23;74.51
12907;DHT22;6521;50.498;8.474;2023-03-23T10:58:26;12.28;74.11
12907;DHT22;6521;50.498;8.474;2023-03-23T11:01:27;12.55;73.78
12907;DHT22;6521;50.498;8.474;2023-03-23T11:04:20;12.92;70.56
12907;DHT22;6521;50.498;8.474;2023-03-23T11:07:20;13.09;71.11
12907;DHT22;6521;50.498;8.474;2023-03-23T11:10:21;13.17;69.76
12907;DHT22;6521;50.498;8.474;2023-03-23T11:13:15;13.16;70.65
12907;DHT22;6521;50.498;8.474;2023-03-23T11:16:08;13.16;69.38
12907;DHT22;6521;50.498;8.474;2023-03-23T11:19:00;13.19;70.52
12907;DHT22;6521;50.498;8.474;2023-03-23T11:24:59;13.14;68.47
12907;DHT22;6521;50.498;8.474;2023-03-23T11:27:51;13.09;68.89
12907;DHT22;6521;50.498;8.474;2023-03-23T11:30:42;12.97;69.59
12907;DHT22;6521;50.498;8.474;2023-03-23T11:33:57;12.86;70.79
12907;DHT22;6521;50.498;8.474;2023-03-23T11:37:04;12.81;70.80
12907;DHT22;6521;50.498;8.474;2023-03-23T11:43:07;12.69;71.24
12907;DHT22;6521;50.498;8.474;2023-03-23T11:46:12;12.59;71.94
12907;DHT22;6521;50.498;8.474;2023-03-23T11:49:12;12.62;71.62
12907;DHT22;6521;50.498;8.474;2023-03-23T11:52:19;12.71;71.30
12907;DHT22;6521;50.498;8.474;2023-03-23T11:55:20;12.76;69.94
12907;DHT22;6521;50.498;8.474;2023-03-23T11:58:15;12.76;69.96
12907;DHT22;6521;50.498;8.474;2023-03-23T12:01:21;12.83;69.96
12907;DHT22;6521;50.498;8.474;2023-03-23T12:04:32;12.95;69.46
12907;DHT22;6521;50.498;8.474;2023-03-23T12:29:13;13.85;67.49
12907;DHT22;6521;50.498;8.474;2023-03-23T12:35:37;14.16;66.72
12907;DHT22;6521;50.498;8.474;2023-03-23T12:44:23;14.43;65.42
12907;DHT22;6521;50.498;8.474;2023-03-23T12:47:42;14.33;65.09
12907;DHT22;6521;50.498;8.474;2023-03-23T12:50:48;14.29;66.00
12907;DHT22;6521;50.498;8.474;2023-03-23T12:56:58;14.34;66.27
12907;DHT22;6521;50.498;8.474;2023-03-23T13:00:03;14.32;64.66
12907;DHT22;6521;50.498;8.474;2023-03-23T13:06:12;14.39;64.03
12907;DHT22;6521;50.498;8.474;2023-03-23T13:09:17;14.40;63.63
12907;DHT22;6521;50.498;8.474;2023-03-23T13:12:10;14.49;64.12
12907;DHT22;6521;50.498;8.474;2023-03-23T13:21:31;15.45;62.40
12907;DHT22;6521;50.498;8.474;2023-03-23T13:24:26;15.93;61.54
12907;DHT22;6521;50.498;8.474;2023-03-23T13:27:23;16.16;59.43
12907;DHT22;6521;50.498;8.474;2023-03-23T13:30:21;16.17;58.62
12907;DHT22;6521;50.498;8.474;2023-03-23T13:33:15;16.47;60.34
12907;DHT22;6521;50.498;8.474;2023-03-23T13:36:14;16.59;58.81
12907;DHT22;6521;50.498;8.474;2023-03-23T13:39:18;16.27;59.17
12907;DHT22;6521;50.498;8.474;2023-03-23T13:51:03;15.62;61.57
12907;DHT22;6521;50.498;8.474;2023-03-23T13:54:06;15.29;63.62
12907;DHT22;6521;50.498;8.474;2023-03-23T13:57:02;15.07;63.49
12907;DHT22;6521;50.498;8.474;2023-03-23T13:59:58;14.88;64.12
12907;DHT22;6521;50.498;8.474;2023-03-23T14:02:49;14.87;65.30
12907;DHT22;6521;50.498;8.474;2023-03-23T14:11:28;14.76;64.97
12907;DHT22;6521;50.498;8.474;2023-03-23T14:14:32;14.85;63.35
12907;DHT22;6521;50.498;8.474;2023-03-23T14:17:26;14.83;63.56
12907;DHT22;6521;50.498;8.474;2023-03-23T14:20:30;14.78;63.39
12907;DHT22;6521;50.498;8.474;2023-03-23T14:23:23;14.73;65.17
12907;DHT22;6521;50.498;8.474;2023-03-23T14:26:19;14.59;66.16
12907;DHT22;6521;50.498;8.474;2023-03-23T14:29:12;14.46;65.99
12907;DHT22;6521;50.498;8.474;2023-03-23T14:32:07;14.34;67.11
12907;DHT22;6521;50.498;8.474;2023-03-23T14:34:59;14.28;67.07
12907;DHT22;6521;50.498;8.474;2023-03-23T14:37:53;14.34;68.20
12907;DHT22;6521;50.498;8.474;2023-03-23T14:40:44;14.33;67.03
12907;DHT22;6521;50.498;8.474;2023-03-23T14:43:35;14.29;67.25
12907;DHT22;6521;50.498;8.474;2023-03-23T14:46:27;14.28;67.39
12907;DHT22;6521;50.498;8.474;2023-03-23T14:49:25;14.26;67.50
12907;DHT22;6521;50.498;8.474;2023-03-23T14:52:18;14.26;67.34
12907;DHT22;6521;50.498;8.474;2023-03-23T14:55:16;14.53;67.91
12907;DHT22;6521;50.498;8.474;2023-03-23T14:58:11;14.88;66.71
12907;DHT22;6521;50.498;8.474;2023-03-23T15:01:09;15.01;65.31
12907;DHT22;6521;50.498;8.474;2023-03-23T15:04:11;15.14;65.29
12907;DHT22;6521;50.498;8.474;2023-03-23T15:07:04;15.04;65.26
12907;DHT22;6521;50.498;8.474;2023-03-23T15:09:56;14.87;65.92
12907;DHT22;6521;50.498;8.474;2023-03-23T15:12:49;14.74;66.43
12907;DHT22;6521;50.498;8.474;2023-03-23T15:15:40;14.71;65.97
12907;DHT22;6521;50.498;8.474;2023-03-23T15:18:37;14.66;66.25
12907;DHT22;6521;50.498;8.474;2023-03-23T15:21:34;14.59;66.51
12907;DHT22;6521;50.498;8.474;2023-03-23T15:24:37;14.60;65.75
12907;DHT22;6521;50.498;8.474;2023-03-23T15:27:33;14.66;65.90
12907;DHT22;6521;50.498;8.474;2023-03-23T15:33:15;14.57;66.54
12907;DHT22;6521;50.498;8.474;2023-03-23T15:36:14;14.56;64.64
12907;DHT22;6521;50.498;8.474;2023-03-23T15:39:06;14.41;65.13
12907;DHT22;6521;50.498;8.474;2023-03-23T15:42:00;14.33;64.74
12907;DHT22;6521;50.498;8.474;2023-03-23T15:47:48;14.18;65.73
12907;DHT22;6521;50.498;8.474;2023-03-23T15:50:40;14.15;66.39
12907;DHT22;6521;50.498;8.474;2023-03-23T15:53:34;14.08;66.52
12907;DHT22;6521;50.498;8.474;2023-03-23T15:56:25;14.12;66.40
12907;DHT22;6521;50.498;8.474;2023-03-23T15:59:17;14.16;65.78
12907;DHT22;6521;50.498;8.474;2023-03-23T16:02:15;14.16;65.51
12907;DHT22;6521;50.498;8.474;2023-03-23T16:05:10;14.19;65.38
12907;DHT22;6521;50.498;8.474;2023-03-23T16:08:02;14.13;65.00
12907;DHT22;6521;50.498;8.474;2023-03-23T16:10:53;14.08;64.90
12907;DHT22;6521;50.498;8.474;2023-03-23T16:13:44;14.04;63.05
12907;DHT22;6521;50.498;8.474;2023-03-23T16:16:38;13.98;64.56
12907;DHT22;6521;50.498;8.474;2023-03-23T16:19:29;13.94;63.64
12907;DHT22;6521;50.498;8.474;2023-03-23T16:22:20;13.91;64.11
12907;DHT22;6521;50.498;8.474;2023-03-23T16:25:11;13.88;64.58
12907;DHT22;6521;50.498;8.474;2023-03-23T16:28:02;13.85;64.37
12907;DHT22;6521;50.498;8.474;2023-03-23T16:30:53;13.83;64.37
12907;DHT22;6521;50.498;8.474;2023-03-23T16:33:44;13.75;65.00
12907;DHT22;6521;50.498;8.474;2023-03-23T16:36:35;13.75;64.78
12907;DHT22;6521;50.498;8.474;2023-03-23T16:39:26;13.71;65.27
12907;DHT22;6521;50.498;8.474;2023-03-23T16:42:17;13.65;64.29
12907;DHT22;6521;50.498;8.474;2023-03-23T16:45:09;13.57;65.22
12907;DHT22;6521;50.498;8.474;2023-03-23T16:48:00;13.57;64.57
12907;DHT22;6521;50.498;8.474;2023-03-23T16:50:51;13.54;64.45
12907;DHT22;6521;50.498;8.474;2023-03-23T16:53:42;13.50;64.47
12907;DHT22;6521;50.498;8.474;2023-03-23T16:56:33;13.44;64.95
12907;DHT22;6521;50.498;8.474;2023-03-23T16:59:27;13.34;64.68
12907;DHT22;6521;50.498;8.474;2023-03-23T17:02:17;13.34;64.58
12907;DHT22;6521;50.498;8.474;2023-03-23T17:05:09;13.33;64.79
12907;DHT22;6521;50.498;8.474;2023-03-23T17:08:01;13.26;65.01
12907;DHT22;6521;50.498;8.474;2023-03-23T17:10:52;13.20;65.28
12907;DHT22;6521;50.498;8.474;2023-03-23T17:13:43;13.19;65.55
12907;DHT22;6521;50.498;8.474;2023-03-23T17:16:33;13.10;66.65
12907;DHT22;6521;50.498;8.474;2023-03-23T17:19:25;13.09;68.08
12907;DHT22;6521;50.498;8.474;2023-03-23T17:22:16;13.00;69.02
12907;DHT22;6521;50.498;8.474;2023-03-23T17:25:08;12.95;69.59
12907;DHT22;6521;50.498;8.474;2023-03-23T17:27:59;12.91;69.89
12907;DHT22;6521;50.498;8.474;2023-03-23T17:30:50;12.88;70.17
12907;DHT22;6521;50.498;8.474;2023-03-23T17:33:41;12.81;70.70
12907;DHT22;6521;50.498;8.474;2023-03-23T17:36:32;12.76;70.81
12907;DHT22;6521;50.498;8.474;2023-03-23T17:39:23;12.64;71.39
12907;DHT22;6521;50.498;8.474;2023-03-23T17:42:14;12.64;71.70
12907;DHT22;6521;50.498;8.474;2023-03-23T17:45:06;12.62;72.02
12907;DHT22;6521;50.498;8.474;2023-03-23T17:47:57;12.54;72.39
12907;DHT22;6521;50.498;8.474;2023-03-23T17:50:48;12.49;72.64
12907;DHT22;6521;50.498;8.474;2023-03-23T17:53:39;12.51;72.64
12907;DHT22;6521;50.498;8.474;2023-03-23T17:56:29;12.45;72.92
12907;DHT22;6521;50.498;8.474;2023-03-23T17:59:20;12.44;73.14
12907;DHT22;6521;50.498;8.474;2023-03-23T18:02:12;12.40;73.24
12907;DHT22;6521;50.498;8.474;2023-03-23T18:05:04;12.40;73.69
12907;DHT22;6521;50.498;8.474;2023-03-23T18:07:55;12.35;73.91
12907;DHT22;6521;50.498;8.474;2023-03-23T18:10:47;12.31;74.30
12907;DHT22;6521;50.498;8.474;2023-03-23T18:13:39;12.34;74.46
12907;DHT22;6521;50.498;8.474;2023-03-23T18:16:29;12.35;74.48
12907;DHT22;6521;50.498;8.474;2023-03-23T18:19:21;12.33;74.71
12907;DHT22;6521;50.498;8.474;2023-03-23T18:22:11;12.28;74.86
12907;DHT22;6521;50.498;8.474;2023-03-23T18:25:02;12.23;75.19
12907;DHT22;6521;50.498;8.474;2023-03-23T18:27:54;12.20;75.56
12907;DHT22;6521;50.498;8.474;2023-03-23T18:30:45;12.27;75.68
12907;DHT22;6521;50.498;8.474;2023-03-23T18:33:40;12.27;75.71
12907;DHT22;6521;50.498;8.474;2023-03-23T18:36:32;12.25;75.91
12907;DHT22;6521;50.498;8.474;2023-03-23T18:39:23;12.25;76.16
12907;DHT22;6521;50.498;8.474;2023-03-23T18:42:14;12.20;76.50
12907;DHT22;6521;50.498;8.474;2023-03-23T18:45:05;12.20;76.50
12907;DHT22;6521;50.498;8.474;2023-03-23T18:47:56;12.12;76.99
12907;DHT22;6521;50.498;8.474;2023-03-23T18:50:49;12.13;76.88
12907;DHT22;6521;50.498;8.474;2023-03-23T18:53:40;12.13;76.47
12907;DHT22;6521;50.498;8.474;2023-03-23T18:56:31;12.18;76.35
12907;DHT22;6521;50.498;8.474;2023-03-23T18:59:21;12.17;76.24
12907;DHT22;6521;50.498;8.474;2023-03-23T19:02:13;12.16;76.37
12907;DHT22;6521;50.498;8.474;2023-03-23T19:05:08;12.12;76.47
12907;DHT22;6521;50.498;8.474;2023-03-23T19:07:59;12.13;76.60
12907;DHT22;6521;50.498;8.474;2023-03-23T19:10:56;12.12;76.82
12907;DHT22;6521;50.498;8.474;2023-03-23T19:13:48;12.10;77.05
12907;DHT22;6521;50.498;8.474;2023-03-23T19:16:38;12.10;77.26
12907;DHT22;6521;50.498;8.474;2023-03-23T19:19:29;12.12;77.29
12907;DHT22;6521;50.498;8.474;2023-03-23T19:22:20;12.07;77.33
12907;DHT22;6521;50.498;8.474;2023-03-23T19:25:11;12.07;77.49
12907;DHT22;6521;50.498;8.474;2023-03-23T19:28:02;12.10;77.39
12907;DHT22;6521;50.498;8.474;2023-03-23T19:30:55;12.08;77.37
12907;DHT22;6521;50.498;8.474;2023-03-23T19:33:46;12.00;77.71
12907;DHT22;6521;50.498;8.474;2023-03-23T19:36:37;11.98;77.84
12907;DHT22;6521;50.498;8.474;2023-03-23T19:39:29;11.97;77.85
12907;DHT22;6521;50.498;8.474;2023-03-23T19:42:20;11.90;77.95
12907;DHT22;6521;50.498;8.474;2023-03-23T19:45:11;11.93;77.84
12907;DHT22;6521;50.498;8.474;2023-03-23T19:48:02;11.93;77.80
12907;DHT22;6521;50.498;8.474;2023-03-23T19:50:53;11.87;77.92
12907;DHT22;6521;50.498;8.474;2023-03-23T19:53:46;11.83;78.24
12907;DHT22;6521;50.498;8.474;2023-03-23T19:56:37;11.80;78.39
12907;DHT22;6521;50.498;8.474;2023-03-23T19:59:28;11.85;78.56
12907;DHT22;6521;50.498;8.474;2023-03-23T20:02:19;11.82;78.62
12907;DHT22;6521;50.498;8.474;2023-03-23T20:05:10;11.77;78.71
12907;DHT22;6521;50.498;8.474;2023-03-23T20:08:02;11.77;78.59
12907;DHT22;6521;50.498;8.474;2023-03-23T20:11:04;11.72;78.80
12907;DHT22;6521;50.498;8.474;2023-03-23T20:13:56;11.66;78.88
12907;DHT22;6521;50.498;8.474;2023-03-23T20:16:46;11.62;79.06
12907;DHT22;6521;50.498;8.474;2023-03-23T20:19:37;11.62;79.03
12907;DHT22;6521;50.498;8.474;2023-03-23T20:22:28;11.66;78.81
12907;DHT22;6521;50.498;8.474;2023-03-23T20:25:19;11.62;78.83
12907;DHT22;6521;50.498;8.474;2023-03-23T20:28:10;11.69;78.59